Sulphur Springs, Missouri
Current Conditions -  °F | °C
As of 7:53 AM on Sunday 21 Dec 2014 (Local Time) from KCPS Reporting Station
Overcast Overcast  
Wind Chill: 32°   Ceiling: 2300
Heat Index: 38°   Visibility: 10mi
Dew Point: 33°   Wind: 8mph
Humidity: 83%   Direction: 140°SE
Pressure: 30.21"   Gusts: NA
Location:  38.3874°N, 90.4319°W
Report Text: KCPS 211353Z 14007KT 10SM OVC023 03/01 A3021 RMK AO2 SLP234 T00330006
Loading
Personal Weather Stations






























Interactive Weather Map New forecast layout! Learn more

10-Day Weather Forecast

Advertisements
Track Severe Weather on mobile